Terminal Aerodrome Forecast
Issued by NWS Grand Forks, ND

Home | Current Version | Previous Version | Graphics & Text | Print | Product List | Glossary On
Versions: 1 2 3 4 5 6 7 8 9 10 11 12 13 14 15 16 17 18 19
000
FTUS43 KFGF 281700
TAFFAR
TAF
KFAR 281737Z 2818/2918 18019G26KT P6SM FEW035
     FM281900 17023G33KT P6SM SCT035
     FM290400 17022G30KT P6SM -SHRA BKN025
     FM290600 17022G30KT P6SM OVC012
     FM291000 32023G33KT P6SM -SHRA OVC008
     FM291400 33026G36KT P6SM OVC012=

USA.gov is the U.S. government's official web portal to all federal, state and local government web resources and services.